Aviation Digital Data Service (ADDS)

Output produced by METARs form (0611 UTC 20 October 2018)
found at http://www.aviationweather.gov/metar/data/
 
FQBR 200600Z 17009KT 9999 FEW020 28/23 Q1017
TAF COR FQBR 200400Z 2006/2112 10015KT 9999 BKN020 
     BECMG 2018/2020 21015G25KT 
     BECMG 2100/2102 12012KT TX28/2013Z TN22/2103Z
       
FQCH 200600Z 11004KT 9999 BKN008 BKN015 21/20 Q1022
TAF FQCH 200400Z 2006/2106 22010KT 9999 BKN015 
     BECMG 2012/2014 10010KT SCT018 
     BECMG 2018/2020 16010KT TX27/2013Z TN17/2103Z
       
TAF FQIN 200400Z 2006/2106 12010KT 9999 BKN020 
     BECMG 2012/2014 20010G20KT SCT025 
     BECMG 2100/2102 11012KT TX27/2013Z TN20/2103Z
       
FQLC 200400Z 11013KT 9999 FEW014 FEW070 18/15 Q1021
TAF COR FQLC 200400Z 2006/2106 03010KT 9999 SCT015 FEW025CB 
     TEMPO 2006/2100 5000 -TSRA SCT010 
     BECMG 2012/2014 10010KT SCT025 
     BECMG 2100/2102 VRB03KT TX28/2013Z TN17/2103Z
       
FQMA 200500Z 23009KT 5000 -DZRA SCT010 BKN020 OVC025 21/18 Q1022 NOSIG
TAF COR FQMA 200400Z 2006/2112 09010KT 9999 BKN018 
     TEMPO 2006/2018 5000 RA SCT015 BKN018 
     BECMG 2012/2014 22010G20KT 
     BECMG 2018/2020 14012KT TX23/2013Z TN19/2103Z
       
TAF FQNC 200400Z 2006/2106 13012KT 9999 BKN020 
     BECMG 2012/2014 03012KT 
     BECMG 2100/2102 10010KT TX32/2013Z TN22/2103Z
       
FQNP 200500Z 01003KT 9999 SCT020 SCT100 25/21 Q1018
TAF COR FQNP 200400Z 2006/2112 13012KT 9999 BKN020 
     BECMG 2012/2014 03012KT 
     BECMG 2100/2102 10010KT TX32/2013Z TN22/2103Z
       
FQPB 200600Z 06007KT 030V100 9999 FEW020 BKN/// 28/22 Q1016
TAF COR FQPB 200400Z 2006/2106 09012KT 9999 SCT020 
     BECMG 2012/2014 15010KT 
     BECMG 2018/2020 21010G20KT TX29/2013Z TN23/2103Z
       
FQQL 200500Z 12005KT 9999 FEW010 BKN020 SCT100 26/23 Q1015
TAF COR FQQL 200400Z 2006/2106 03012KT 9999 SCT020 FEW030CB 
     TEMPO 2006/2020 5000 -TSRA SCT015 BKN020 
     BECMG 2012/2014 17010KT SCT025 
     BECMG 2100/2102 21015KT TX32/2013Z TN22/2103Z
       
FQTT 200600Z 10011KT 9999 FEW020 SCT100 28/20 Q1017
TAF COR FQTT 200400Z 2006/2106 23012KT 9999 SCT020 FEW025CB 
     BECMG 2012/2014 10012KT 
     BECMG 2018/2020 21010KT 
     BECMG 2100/2102 08010KT TX35/2013Z TN23/2103Z
       
TAF FQVL 200400Z 2006/2106 12010KT 9999 BKN020 
     BECMG 2012/2014 20010G20KT SCT025 
     BECMG 2100/2102 11012KT TX28/2013Z TN20/2103Z